x

Lake Winnipeg S. Basin (45140) Wave Buoy

4:00pm - Fri 31st Jul 2015 All times are UTC.

  • Sig Wave height 2.6ft
  • Peak Period 21s
  • Wind
    18mph, 20mph gusts
  • Sea Temp 71°f
  • Air Temp 67°f
  • Sea Pressure 1014.6mb

More Historic Weather Station data

Upgrade to MSW Pro to gain access to the past 30 days of data for over 8000 Wavebouys and Weather Stations around the globe.

Join Pro

Comparision Forecast

View Surf forecast
   
Fri 07/31 4:00pm 2.5ft 21s 18 20 mph 1014.6mb 71f 67f
3:00pm 2.5ft 21s 18 22 mph 1014.5mb 71f 66f
2:00pm 3ft 21s 20 25 mph 1014.3mb 71f 65f
1:00pm 2.5ft 21s 20 27 mph 1014.1mb 71f 65f
11:00am 3ft 18s 20 25 mph 1013.4mb 71f 65f
10:00am 3ft 21s 20 25 mph 1013mb 71f 65f
9:00am 2.5ft 21s 18 22 mph 1012.8mb 71f 65f
8:00am 3ft 21s 18 22 mph 1012.8mb 71f 65f
7:00am 2.5ft 21s 18 22 mph 1012.8mb 71f 64f
5:00am 2.5ft 21s 20 25 mph 1013mb 71f 66f
4:00am  -   -  16
mph
- - 67f
3:00am 1.3ft 21s 11 13 mph 1012.6mb 71f 68f
2:00am  -   -  11
mph
1012.4mb 71f 69f
1:00am 2.5ft 21s 4 7 mph 1012mb 71f 69f
Thu 07/30 10:00pm 2.5ft 21s 22 31 mph 1010.6mb 71f 74f
9:00pm 2.5ft 21s 20 25 mph 1010.2mb 71f 75f
8:00pm 2.5ft 21s 18 22 mph 1010.5mb 71f 75f
7:00pm 2.5ft 21s 16
mph
1010.9mb 71f 74f
3:00pm 2.5ft 21s 16 18 mph 1011.3mb 71f 68f
2:00pm 2ft 21s 16 20 mph 1011.4mb 71f 67f
1:00pm 1.6ft 21s 13 16 mph 1011.3mb 71f 66f
12:00pm 1.3ft 21s 13 16 mph 1011.1mb 71f 66f
11:00am 1ft 21s 13
mph
1011.2mb 71f 65f
10:00am 1ft 20s 11 13 mph 1010.9mb 71f 65f
8:00am 1.6ft 20s 9 11 mph 1010.7mb 71f 65f
7:00am 1.6ft 21s 11 13 mph 1010.7mb 71f 66f
6:00am 2.5ft 20s 13
mph
1010.6mb 71f 66f
4:00am 2.5ft 20s 18 20 mph 1009.9mb 71f 67f
3:00am 3.5ft 20s 18 22 mph 1009.5mb 71f 68f
Wed 07/29 11:00pm  -   -  27
mph
- - -
10:00pm 4ft 20s 27 31 mph 1005mb 71f 70f
7:00pm 5.5ft 20s 27 34 mph 1001.4mb 71f 69f
6:00pm 5ft 18s 27 36 mph 1000.4mb 71f 68f
5:00pm 6ft 21s 29 36 mph 999.2mb 71f 66f
3:00pm  -   -  29
mph
- - 65f
1:00pm 3ft 18s 27 31 mph 994.5mb 72f 64f
12:00pm 2.5ft 21s 18 20 mph 993.7mb 72f 64f
11:00am 3ft 21s 16 20 mph 993mb 72f 63f
10:00am 3ft 21s 20 25 mph 992.2mb 72f 62f
9:00am 2.5ft 21s 20 27 mph 990.9mb 72f 63f
8:00am 3.5ft 4s 18 20 mph 990.3mb 72f 63f
7:00am 4.5ft 5s 18 22 mph 990.4mb 72f 62f
6:00am 5.5ft 5s 25 31 mph 991mb 72f 64f
5:00am  -   -  31
mph
- - -
12:00am 6ft 5s 29 36 mph 995.9mb 72f 73f
Tue 07/28 11:00pm 5ft 5s 27 36 mph 996.5mb 72f 73f
9:00pm 4.5ft 4s 22 27 mph 996.5mb 72f 74f
7:00pm 3ft 4s 22 31 mph 996.6mb 72f 73f
6:00pm 2.5ft 20s 20 27 mph 997.1mb 72f 76f
4:00pm  -   -  22
mph
998.9mb 72f 73f
3:00pm 5ft 21s 25 29 mph 999.7mb 72f 73f
2:00pm 2.5ft 20s 20 25 mph 1000.3mb 72f 74f
1:00pm 2.5ft 20s 18 22 mph 1000.3mb 73f 74f
12:00pm 2.5ft 21s 18 22 mph 1001.5mb 73f 74f
11:00am 2.5ft 21s 18 22 mph 1002.4mb 73f 74f
10:00am 2.5ft 20s 16 20 mph 1002.9mb 73f 74f
9:00am 1.6ft 21s 16 18 mph 1004mb 73f 75f
8:00am 1.3ft 20s 13 16 mph 1005.2mb 74f 75f
7:00am 1ft 21s 11 13 mph 1006mb 74f 76f
6:00am 1ft 20s 11 13 mph 1007mb 74f 76f
5:00am 1.3ft 21s 9 11 mph 1007.7mb 75f 78f
4:00am 2ft 20s 13 16 mph 1008.2mb 76f 78f
3:00am 1ft 21s 11 13 mph 1008.7mb 77f 78f
1:00am 0.3ft 2s 4 7 mph 1009.2mb - 80f
Mon 07/27 10:00pm  -  3s 7 9 mph 1009.1mb - 81f
9:00pm  -  2s 4 7 mph 1010.2mb - 80f